sensor_id;sensor_type;location;lat;lon;timestamp;temperature;humidity
46438;DHT22;32137;48.728;9.142;2023-02-12T00:00:48;5.60;99.90
46438;DHT22;32137;48.728;9.142;2023-02-12T00:03:14;5.60;99.90
46438;DHT22;32137;48.728;9.142;2023-02-12T00:05:40;5.60;99.90
46438;DHT22;32137;48.728;9.142;2023-02-12T00:08:09;5.60;99.90
46438;DHT22;32137;48.728;9.142;2023-02-12T00:10:39;5.60;99.90
46438;DHT22;32137;48.728;9.142;2023-02-12T00:13:05;5.60;99.90
46438;DHT22;32137;48.728;9.142;2023-02-12T00:15:31;5.60;99.90
46438;DHT22;32137;48.728;9.142;2023-02-12T00:17:58;5.60;99.90
46438;DHT22;32137;48.728;9.142;2023-02-12T00:20:24;5.60;99.90
46438;DHT22;32137;48.728;9.142;2023-02-12T00:22:49;5.70;99.90
46438;DHT22;32137;48.728;9.142;2023-02-12T00:25:15;5.60;99.90
46438;DHT22;32137;48.728;9.142;2023-02-12T00:27:41;5.60;99.90
46438;DHT22;32137;48.728;9.142;2023-02-12T00:30:07;5.70;99.90
46438;DHT22;32137;48.728;9.142;2023-02-12T00:32:32;5.60;99.90
46438;DHT22;32137;48.728;9.142;2023-02-12T00:34:58;5.60;99.90
46438;DHT22;32137;48.728;9.142;2023-02-12T00:37:23;5.60;99.90
46438;DHT22;32137;48.728;9.142;2023-02-12T00:39:49;5.60;99.90
46438;DHT22;32137;48.728;9.142;2023-02-12T00:42:14;5.60;99.90
46438;DHT22;32137;48.728;9.142;2023-02-12T00:44:40;5.60;99.90
46438;DHT22;32137;48.728;9.142;2023-02-12T00:47:05;5.60;99.90
46438;DHT22;32137;48.728;9.142;2023-02-12T00:49:31;5.60;99.90
46438;DHT22;32137;48.728;9.142;2023-02-12T00:52:00;5.60;99.90
46438;DHT22;32137;48.728;9.142;2023-02-12T00:54:27;5.70;99.90
46438;DHT22;32137;48.728;9.142;2023-02-12T00:56:52;5.70;99.90
46438;DHT22;32137;48.728;9.142;2023-02-12T00:59:20;5.70;99.90
46438;DHT22;32137;48.728;9.142;2023-02-12T01:01:46;5.60;99.90
46438;DHT22;32137;48.728;9.142;2023-02-12T01:04:11;5.60;99.90
46438;DHT22;32137;48.728;9.142;2023-02-12T01:06:37;5.60;99.90
46438;DHT22;32137;48.728;9.142;2023-02-12T01:09:03;5.60;99.90
46438;DHT22;32137;48.728;9.142;2023-02-12T01:11:28;5.60;99.90
46438;DHT22;32137;48.728;9.142;2023-02-12T01:13:54;5.60;99.90
46438;DHT22;32137;48.728;9.142;2023-02-12T01:16:22;5.60;99.90
46438;DHT22;32137;48.728;9.142;2023-02-12T01:18:49;5.60;99.90
46438;DHT22;32137;48.728;9.142;2023-02-12T01:21:22;5.60;99.90
46438;DHT22;32137;48.728;9.142;2023-02-12T01:23:48;5.60;99.90
46438;DHT22;32137;48.728;9.142;2023-02-12T01:26:15;5.60;99.90
46438;DHT22;32137;48.728;9.142;2023-02-12T01:28:43;5.60;99.90
46438;DHT22;32137;48.728;9.142;2023-02-12T01:31:14;5.60;99.90
46438;DHT22;32137;48.728;9.142;2023-02-12T01:33:40;5.60;99.90
46438;DHT22;32137;48.728;9.142;2023-02-12T01:36:07;5.60;99.90
46438;DHT22;32137;48.728;9.142;2023-02-12T01:38:34;5.60;99.90
46438;DHT22;32137;48.728;9.142;2023-02-12T01:41:08;5.60;99.90
46438;DHT22;32137;48.728;9.142;2023-02-12T01:43:35;5.60;99.90
46438;DHT22;32137;48.728;9.142;2023-02-12T01:46:01;5.60;99.90
46438;DHT22;32137;48.728;9.142;2023-02-12T01:48:29;5.60;99.90
46438;DHT22;32137;48.728;9.142;2023-02-12T01:50:58;5.70;99.90
46438;DHT22;32137;48.728;9.142;2023-02-12T01:53:30;5.70;99.90
46438;DHT22;32137;48.728;9.142;2023-02-12T01:55:58;5.60;99.90
46438;DHT22;32137;48.728;9.142;2023-02-12T01:58:29;5.60;99.90
46438;DHT22;32137;48.728;9.142;2023-02-12T02:00:55;5.60;99.90
46438;DHT22;32137;48.728;9.142;2023-02-12T02:03:22;5.60;99.90
46438;DHT22;32137;48.728;9.142;2023-02-12T02:06:12;5.60;99.90
46438;DHT22;32137;48.728;9.142;2023-02-12T02:08:39;5.60;99.90
46438;DHT22;32137;48.728;9.142;2023-02-12T02:11:05;5.50;99.90
46438;DHT22;32137;48.728;9.142;2023-02-12T02:13:51;5.50;99.90
46438;DHT22;32137;48.728;9.142;2023-02-12T02:16:43;5.50;99.90
46438;DHT22;32137;48.728;9.142;2023-02-12T02:19:29;5.60;99.90
46438;DHT22;32137;48.728;9.142;2023-02-12T02:27:47;5.60;99.90
46438;DHT22;32137;48.728;9.142;2023-02-12T02:32:54;5.60;99.90
46438;DHT22;32137;48.728;9.142;2023-02-12T02:35:52;5.60;99.90
46438;DHT22;32137;48.728;9.142;2023-02-12T02:38:39;5.60;99.90
46438;DHT22;32137;48.728;9.142;2023-02-12T02:43:49;5.50;99.90
46438;DHT22;32137;48.728;9.142;2023-02-12T02:48:53;5.50;99.90
46438;DHT22;32137;48.728;9.142;2023-02-12T02:51:25;5.60;99.90
46438;DHT22;32137;48.728;9.142;2023-02-12T02:54:17;5.60;99.90
46438;DHT22;32137;48.728;9.142;2023-02-12T02:56:43;5.60;99.90
46438;DHT22;32137;48.728;9.142;2023-02-12T02:59:31;5.50;99.90
46438;DHT22;32137;48.728;9.142;2023-02-12T03:02:08;5.50;99.90
46438;DHT22;32137;48.728;9.142;2023-02-12T03:04:42;5.50;99.90
46438;DHT22;32137;48.728;9.142;2023-02-12T03:07:12;5.50;99.90
46438;DHT22;32137;48.728;9.142;2023-02-12T03:10:01;5.50;99.90
46438;DHT22;32137;48.728;9.142;2023-02-12T03:12:39;5.50;99.90
46438;DHT22;32137;48.728;9.142;2023-02-12T03:15:14;5.50;99.90
46438;DHT22;32137;48.728;9.142;2023-02-12T03:17:45;5.50;99.90
46438;DHT22;32137;48.728;9.142;2023-02-12T03:20:24;5.60;99.90
46438;DHT22;32137;48.728;9.142;2023-02-12T03:23:11;5.60;99.90
46438;DHT22;32137;48.728;9.142;2023-02-12T03:26:03;5.50;99.90
46438;DHT22;32137;48.728;9.142;2023-02-12T03:28:35;5.60;99.90
46438;DHT22;32137;48.728;9.142;2023-02-12T03:33:58;5.60;99.90
46438;DHT22;32137;48.728;9.142;2023-02-12T03:36:46;5.60;99.90
46438;DHT22;32137;48.728;9.142;2023-02-12T03:39:27;5.60;99.90
46438;DHT22;32137;48.728;9.142;2023-02-12T03:42:11;5.60;99.90
46438;DHT22;32137;48.728;9.142;2023-02-12T03:45:03;5.50;99.90
46438;DHT22;32137;48.728;9.142;2023-02-12T03:47:43;5.60;99.90
46438;DHT22;32137;48.728;9.142;2023-02-12T03:50:19;5.60;99.90
46438;DHT22;32137;48.728;9.142;2023-02-12T03:52:46;5.50;99.90
46438;DHT22;32137;48.728;9.142;2023-02-12T03:55:14;5.60;99.90
46438;DHT22;32137;48.728;9.142;2023-02-12T03:57:44;5.60;99.90
46438;DHT22;32137;48.728;9.142;2023-02-12T04:00:20;5.50;99.90
46438;DHT22;32137;48.728;9.142;2023-02-12T04:02:47;5.50;99.90
46438;DHT22;32137;48.728;9.142;2023-02-12T04:05:21;5.50;99.90
46438;DHT22;32137;48.728;9.142;2023-02-12T04:07:48;5.60;99.90
46438;DHT22;32137;48.728;9.142;2023-02-12T04:10:15;5.60;99.90
46438;DHT22;32137;48.728;9.142;2023-02-12T04:13:03;5.50;99.90
46438;DHT22;32137;48.728;9.142;2023-02-12T04:18:46;5.50;99.90
46438;DHT22;32137;48.728;9.142;2023-02-12T04:21:43;5.50;99.90
46438;DHT22;32137;48.728;9.142;2023-02-12T04:26:58;5.50;99.90
46438;DHT22;32137;48.728;9.142;2023-02-12T04:37:37;5.40;99.90
46438;DHT22;32137;48.728;9.142;2023-02-12T04:40:07;5.40;99.90
46438;DHT22;32137;48.728;9.142;2023-02-12T04:42:44;5.40;99.90
46438;DHT22;32137;48.728;9.142;2023-02-12T04:45:12;5.30;99.90
46438;DHT22;32137;48.728;9.142;2023-02-12T04:47:38;5.40;99.90
46438;DHT22;32137;48.728;9.142;2023-02-12T04:50:04;5.40;99.90
46438;DHT22;32137;48.728;9.142;2023-02-12T04:52:30;5.40;99.90
46438;DHT22;32137;48.728;9.142;2023-02-12T04:54:55;5.40;99.90
46438;DHT22;32137;48.728;9.142;2023-02-12T04:57:21;5.30;99.90
46438;DHT22;32137;48.728;9.142;2023-02-12T04:59:46;5.30;99.90
46438;DHT22;32137;48.728;9.142;2023-02-12T05:02:12;5.30;99.90
46438;DHT22;32137;48.728;9.142;2023-02-12T05:04:37;5.30;99.90
46438;DHT22;32137;48.728;9.142;2023-02-12T05:07:03;5.20;99.90
46438;DHT22;32137;48.728;9.142;2023-02-12T05:09:29;5.20;99.90
46438;DHT22;32137;48.728;9.142;2023-02-12T05:11:54;5.30;99.90
46438;DHT22;32137;48.728;9.142;2023-02-12T05:14:22;5.30;99.90
46438;DHT22;32137;48.728;9.142;2023-02-12T05:16:48;5.20;99.90
46438;DHT22;32137;48.728;9.142;2023-02-12T05:19:13;5.20;99.90
46438;DHT22;32137;48.728;9.142;2023-02-12T05:21:39;5.30;99.90
46438;DHT22;32137;48.728;9.142;2023-02-12T05:24:04;5.30;99.90
46438;DHT22;32137;48.728;9.142;2023-02-12T05:26:30;5.30;99.90
46438;DHT22;32137;48.728;9.142;2023-02-12T05:28:56;5.30;99.90
46438;DHT22;32137;48.728;9.142;2023-02-12T05:31:22;5.30;99.90
46438;DHT22;32137;48.728;9.142;2023-02-12T05:33:48;5.30;99.90
46438;DHT22;32137;48.728;9.142;2023-02-12T05:36:16;5.30;99.90
46438;DHT22;32137;48.728;9.142;2023-02-12T05:38:42;5.30;99.90
46438;DHT22;32137;48.728;9.142;2023-02-12T05:41:17;5.30;99.90
46438;DHT22;32137;48.728;9.142;2023-02-12T05:43:43;5.30;99.90
46438;DHT22;32137;48.728;9.142;2023-02-12T05:46:10;5.30;99.90
46438;DHT22;32137;48.728;9.142;2023-02-12T05:48:36;5.20;99.90
46438;DHT22;32137;48.728;9.142;2023-02-12T05:51:05;5.20;99.90
46438;DHT22;32137;48.728;9.142;2023-02-12T05:53:31;5.30;99.90
46438;DHT22;32137;48.728;9.142;2023-02-12T05:58:37;5.20;99.90
46438;DHT22;32137;48.728;9.142;2023-02-12T06:01:12;5.20;99.90
46438;DHT22;32137;48.728;9.142;2023-02-12T06:03:38;5.20;99.90
46438;DHT22;32137;48.728;9.142;2023-02-12T06:06:04;5.20;99.90
46438;DHT22;32137;48.728;9.142;2023-02-12T06:08:29;5.20;99.90
46438;DHT22;32137;48.728;9.142;2023-02-12T06:10:59;5.20;99.90
46438;DHT22;32137;48.728;9.142;2023-02-12T06:13:25;5.20;99.90
46438;DHT22;32137;48.728;9.142;2023-02-12T06:15:51;5.20;99.90
46438;DHT22;32137;48.728;9.142;2023-02-12T06:18:16;5.20;99.90
46438;DHT22;32137;48.728;9.142;2023-02-12T06:20:42;5.20;99.90
46438;DHT22;32137;48.728;9.142;2023-02-12T06:23:07;5.20;99.90
46438;DHT22;32137;48.728;9.142;2023-02-12T06:25:33;5.20;99.90
46438;DHT22;32137;48.728;9.142;2023-02-12T06:27:58;5.20;99.90
46438;DHT22;32137;48.728;9.142;2023-02-12T06:30:24;5.20;99.90
46438;DHT22;32137;48.728;9.142;2023-02-12T06:32:49;5.20;99.90
46438;DHT22;32137;48.728;9.142;2023-02-12T06:35:15;5.20;99.90
46438;DHT22;32137;48.728;9.142;2023-02-12T06:37:41;5.20;99.90
46438;DHT22;32137;48.728;9.142;2023-02-12T06:40:06;5.20;99.90
46438;DHT22;32137;48.728;9.142;2023-02-12T06:42:32;5.20;99.90
46438;DHT22;32137;48.728;9.142;2023-02-12T06:44:58;5.20;99.90
46438;DHT22;32137;48.728;9.142;2023-02-12T06:47:23;5.20;99.90
46438;DHT22;32137;48.728;9.142;2023-02-12T06:49:49;5.20;99.90
46438;DHT22;32137;48.728;9.142;2023-02-12T06:52:14;5.20;99.90
46438;DHT22;32137;48.728;9.142;2023-02-12T06:54:40;5.30;99.90
46438;DHT22;32137;48.728;9.142;2023-02-12T06:57:05;5.20;99.90
46438;DHT22;32137;48.728;9.142;2023-02-12T06:59:31;5.30;99.90
46438;DHT22;32137;48.728;9.142;2023-02-12T07:01:56;5.30;99.90
46438;DHT22;32137;48.728;9.142;2023-02-12T07:04:22;5.30;99.90
46438;DHT22;32137;48.728;9.142;2023-02-12T07:06:47;5.40;99.90
46438;DHT22;32137;48.728;9.142;2023-02-12T07:09:13;5.30;99.90
46438;DHT22;32137;48.728;9.142;2023-02-12T07:11:38;5.40;99.90
46438;DHT22;32137;48.728;9.142;2023-02-12T07:14:05;5.40;99.90
46438;DHT22;32137;48.728;9.142;2023-02-12T07:16:31;5.40;99.90
46438;DHT22;32137;48.728;9.142;2023-02-12T07:18:56;5.40;99.90
46438;DHT22;32137;48.728;9.142;2023-02-12T07:21:22;5.40;99.90
46438;DHT22;32137;48.728;9.142;2023-02-12T07:23:49;5.40;99.90
46438;DHT22;32137;48.728;9.142;2023-02-12T07:26:16;5.40;99.90
46438;DHT22;32137;48.728;9.142;2023-02-12T07:28:42;5.40;99.90
46438;DHT22;32137;48.728;9.142;2023-02-12T07:31:09;5.40;99.90
46438;DHT22;32137;48.728;9.142;2023-02-12T07:33:35;5.40;99.90
46438;DHT22;32137;48.728;9.142;2023-02-12T07:36:03;5.40;99.90
46438;DHT22;32137;48.728;9.142;2023-02-12T07:38:29;5.50;99.90
46438;DHT22;32137;48.728;9.142;2023-02-12T07:40:55;5.50;99.90
46438;DHT22;32137;48.728;9.142;2023-02-12T07:43:23;5.50;99.90
46438;DHT22;32137;48.728;9.142;2023-02-12T07:45:48;5.50;99.90
46438;DHT22;32137;48.728;9.142;2023-02-12T07:48:14;5.50;99.90
46438;DHT22;32137;48.728;9.142;2023-02-12T07:50:39;5.50;99.90
46438;DHT22;32137;48.728;9.142;2023-02-12T07:53:05;5.60;99.90
46438;DHT22;32137;48.728;9.142;2023-02-12T07:55:30;5.60;99.90
46438;DHT22;32137;48.728;9.142;2023-02-12T07:57:56;5.60;99.90
46438;DHT22;32137;48.728;9.142;2023-02-12T08:00:21;5.60;99.90
46438;DHT22;32137;48.728;9.142;2023-02-12T08:02:51;5.70;99.90
46438;DHT22;32137;48.728;9.142;2023-02-12T08:05:17;5.60;99.90
46438;DHT22;32137;48.728;9.142;2023-02-12T08:07:43;5.70;99.90
46438;DHT22;32137;48.728;9.142;2023-02-12T08:10:08;5.60;99.90
46438;DHT22;32137;48.728;9.142;2023-02-12T08:12:34;5.60;99.90
46438;DHT22;32137;48.728;9.142;2023-02-12T08:15:00;5.60;99.90
46438;DHT22;32137;48.728;9.142;2023-02-12T08:17:25;5.70;99.90
46438;DHT22;32137;48.728;9.142;2023-02-12T08:19:51;5.70;99.90
46438;DHT22;32137;48.728;9.142;2023-02-12T08:22:16;5.80;99.90
46438;DHT22;32137;48.728;9.142;2023-02-12T08:24:42;5.80;99.90
46438;DHT22;32137;48.728;9.142;2023-02-12T08:27:07;5.90;99.90
46438;DHT22;32137;48.728;9.142;2023-02-12T08:29:33;5.90;99.90
46438;DHT22;32137;48.728;9.142;2023-02-12T08:32:00;6.00;99.90
46438;DHT22;32137;48.728;9.142;2023-02-12T08:34:29;6.00;99.90
46438;DHT22;32137;48.728;9.142;2023-02-12T08:36:55;6.00;99.90
46438;DHT22;32137;48.728;9.142;2023-02-12T08:39:23;6.10;99.90
46438;DHT22;32137;48.728;9.142;2023-02-12T08:41:49;6.10;99.90
46438;DHT22;32137;48.728;9.142;2023-02-12T08:44:16;6.20;99.90
46438;DHT22;32137;48.728;9.142;2023-02-12T08:46:44;6.20;99.90
46438;DHT22;32137;48.728;9.142;2023-02-12T08:49:13;6.20;99.90
46438;DHT22;32137;48.728;9.142;2023-02-12T08:51:42;6.30;99.90
46438;DHT22;32137;48.728;9.142;2023-02-12T08:54:11;6.30;99.90
46438;DHT22;32137;48.728;9.142;2023-02-12T08:56:37;6.30;99.90
46438;DHT22;32137;48.728;9.142;2023-02-12T08:59:04;6.40;99.90
46438;DHT22;32137;48.728;9.142;2023-02-12T09:01:33;6.50;99.90
46438;DHT22;32137;48.728;9.142;2023-02-12T09:03:59;6.50;99.90
46438;DHT22;32137;48.728;9.142;2023-02-12T09:06:26;6.50;99.90
46438;DHT22;32137;48.728;9.142;2023-02-12T09:08:52;6.60;99.90
46438;DHT22;32137;48.728;9.142;2023-02-12T09:11:21;6.70;99.90
46438;DHT22;32137;48.728;9.142;2023-02-12T09:13:56;6.70;99.90
46438;DHT22;32137;48.728;9.142;2023-02-12T09:16:22;6.80;99.90
46438;DHT22;32137;48.728;9.142;2023-02-12T09:18:48;6.80;99.90
46438;DHT22;32137;48.728;9.142;2023-02-12T09:21:14;6.90;99.90
46438;DHT22;32137;48.728;9.142;2023-02-12T09:23:42;7.00;99.90
46438;DHT22;32137;48.728;9.142;2023-02-12T09:26:10;7.00;99.90
46438;DHT22;32137;48.728;9.142;2023-02-12T09:28:37;7.00;99.90
46438;DHT22;32137;48.728;9.142;2023-02-12T09:31:25;7.00;99.90
46438;DHT22;32137;48.728;9.142;2023-02-12T09:33:52;7.10;99.90
46438;DHT22;32137;48.728;9.142;2023-02-12T09:36:20;7.10;99.90
46438;DHT22;32137;48.728;9.142;2023-02-12T09:38:45;7.10;99.90
46438;DHT22;32137;48.728;9.142;2023-02-12T09:41:45;7.10;99.90
46438;DHT22;32137;48.728;9.142;2023-02-12T09:44:19;7.20;99.90
46438;DHT22;32137;48.728;9.142;2023-02-12T09:52:18;7.40;99.90
46438;DHT22;32137;48.728;9.142;2023-02-12T09:54:45;7.40;99.90
46438;DHT22;32137;48.728;9.142;2023-02-12T09:57:39;7.50;99.90
46438;DHT22;32137;48.728;9.142;2023-02-12T10:00:07;7.50;99.90
46438;DHT22;32137;48.728;9.142;2023-02-12T10:02:38;7.50;99.90
46438;DHT22;32137;48.728;9.142;2023-02-12T10:05:05;7.60;99.90
46438;DHT22;32137;48.728;9.142;2023-02-12T10:13:34;7.70;99.90
46438;DHT22;32137;48.728;9.142;2023-02-12T10:19:20;7.80;99.90
46438;DHT22;32137;48.728;9.142;2023-02-12T10:27:15;7.90;99.90
46438;DHT22;32137;48.728;9.142;2023-02-12T10:29:42;7.90;99.90
46438;DHT22;32137;48.728;9.142;2023-02-12T10:32:29;7.90;99.90
46438;DHT22;32137;48.728;9.142;2023-02-12T10:34:56;7.90;99.90
46438;DHT22;32137;48.728;9.142;2023-02-12T10:37:33;7.90;99.90
46438;DHT22;32137;48.728;9.142;2023-02-12T10:42:41;7.90;99.90
46438;DHT22;32137;48.728;9.142;2023-02-12T10:45:15;7.90;99.90
46438;DHT22;32137;48.728;9.142;2023-02-12T10:47:43;8.00;99.90
46438;DHT22;32137;48.728;9.142;2023-02-12T10:53:17;8.10;99.90
46438;DHT22;32137;48.728;9.142;2023-02-12T10:55:44;8.10;99.90
46438;DHT22;32137;48.728;9.142;2023-02-12T10:58:21;8.10;99.90
46438;DHT22;32137;48.728;9.142;2023-02-12T11:00:56;8.20;99.90
46438;DHT22;32137;48.728;9.142;2023-02-12T11:03:27;8.20;99.90
46438;DHT22;32137;48.728;9.142;2023-02-12T11:05:52;8.20;99.90
46438;DHT22;32137;48.728;9.142;2023-02-12T11:08:33;8.30;99.90
46438;DHT22;32137;48.728;9.142;2023-02-12T11:11:29;8.30;99.90
46438;DHT22;32137;48.728;9.142;2023-02-12T11:14:05;8.40;99.90
46438;DHT22;32137;48.728;9.142;2023-02-12T11:16:46;8.40;99.90
46438;DHT22;32137;48.728;9.142;2023-02-12T11:19:20;8.50;99.90
46438;DHT22;32137;48.728;9.142;2023-02-12T11:21:46;8.50;99.90
46438;DHT22;32137;48.728;9.142;2023-02-12T11:24:33;8.60;99.90
46438;DHT22;32137;48.728;9.142;2023-02-12T11:29:40;8.50;99.90
46438;DHT22;32137;48.728;9.142;2023-02-12T11:32:08;8.50;99.90
46438;DHT22;32137;48.728;9.142;2023-02-12T11:34:35;8.60;99.90
46438;DHT22;32137;48.728;9.142;2023-02-12T11:37:01;8.60;99.90
46438;DHT22;32137;48.728;9.142;2023-02-12T11:39:37;8.60;99.90
46438;DHT22;32137;48.728;9.142;2023-02-12T11:42:24;8.70;99.90
46438;DHT22;32137;48.728;9.142;2023-02-12T11:44:55;8.70;99.90
46438;DHT22;32137;48.728;9.142;2023-02-12T11:47:30;8.80;99.90
46438;DHT22;32137;48.728;9.142;2023-02-12T11:52:33;8.80;99.90
46438;DHT22;32137;48.728;9.142;2023-02-12T11:55:02;8.80;99.90
46438;DHT22;32137;48.728;9.142;2023-02-12T11:57:47;8.80;99.90
46438;DHT22;32137;48.728;9.142;2023-02-12T12:00:24;8.90;99.90
46438;DHT22;32137;48.728;9.142;2023-02-12T12:05:37;9.00;99.90
46438;DHT22;32137;48.728;9.142;2023-02-12T12:08:13;9.00;99.90
46438;DHT22;32137;48.728;9.142;2023-02-12T12:10:48;9.10;99.90
46438;DHT22;32137;48.728;9.142;2023-02-12T12:13:21;9.10;99.90
46438;DHT22;32137;48.728;9.142;2023-02-12T12:15:59;9.10;99.90
46438;DHT22;32137;48.728;9.142;2023-02-12T12:19:09;9.10;99.90
46438;DHT22;32137;48.728;9.142;2023-02-12T12:22:35;9.20;99.90
46438;DHT22;32137;48.728;9.142;2023-02-12T12:33:19;9.30;99.90
46438;DHT22;32137;48.728;9.142;2023-02-12T12:36:20;9.40;99.90
46438;DHT22;32137;48.728;9.142;2023-02-12T12:41:44;9.50;99.90
46438;DHT22;32137;48.728;9.142;2023-02-12T12:52:53;9.80;99.90
46438;DHT22;32137;48.728;9.142;2023-02-12T13:01:25;9.90;99.90
46438;DHT22;32137;48.728;9.142;2023-02-12T13:04:36;9.80;99.90
46438;DHT22;32137;48.728;9.142;2023-02-12T13:13:03;9.80;99.90
46438;DHT22;32137;48.728;9.142;2023-02-12T13:15:43;9.80;99.90
46438;DHT22;32137;48.728;9.142;2023-02-12T13:18:23;9.80;99.90
46438;DHT22;32137;48.728;9.142;2023-02-12T13:29:12;10.20;99.90
46438;DHT22;32137;48.728;9.142;2023-02-12T13:31:50;10.10;99.80
46438;DHT22;32137;48.728;9.142;2023-02-12T13:34:18;10.10;99.90
46438;DHT22;32137;48.728;9.142;2023-02-12T13:36:44;10.10;99.60
46438;DHT22;32137;48.728;9.142;2023-02-12T13:39:30;10.10;99.30
46438;DHT22;32137;48.728;9.142;2023-02-12T13:47:58;10.30;98.50
46438;DHT22;32137;48.728;9.142;2023-02-12T13:52:55;10.40;98.50
46438;DHT22;32137;48.728;9.142;2023-02-12T13:55:53;10.30;98.30
46438;DHT22;32137;48.728;9.142;2023-02-12T14:01:01;10.20;98.30
46438;DHT22;32137;48.728;9.142;2023-02-12T14:03:28;10.30;98.40
46438;DHT22;32137;48.728;9.142;2023-02-12T14:06:17;10.50;97.90
46438;DHT22;32137;48.728;9.142;2023-02-12T14:08:49;10.50;97.40
46438;DHT22;32137;48.728;9.142;2023-02-12T14:11:18;10.50;97.40
46438;DHT22;32137;48.728;9.142;2023-02-12T14:14:00;10.40;97.70
46438;DHT22;32137;48.728;9.142;2023-02-12T14:21:59;10.40;97.70
46438;DHT22;32137;48.728;9.142;2023-02-12T14:24:47;10.50;97.50
46438;DHT22;32137;48.728;9.142;2023-02-12T14:30:26;10.50;97.00
46438;DHT22;32137;48.728;9.142;2023-02-12T14:33:24;10.60;96.90
46438;DHT22;32137;48.728;9.142;2023-02-12T14:36:11;10.60;96.70
46438;DHT22;32137;48.728;9.142;2023-02-12T14:41:29;10.60;96.70
46438;DHT22;32137;48.728;9.142;2023-02-12T14:46:47;10.60;96.50
46438;DHT22;32137;48.728;9.142;2023-02-12T14:54:40;10.70;96.10
46438;DHT22;32137;48.728;9.142;2023-02-12T14:57:11;10.70;96.00
46438;DHT22;32137;48.728;9.142;2023-02-12T14:59:43;10.70;95.90
46438;DHT22;32137;48.728;9.142;2023-02-12T15:02:31;10.70;95.50
46438;DHT22;32137;48.728;9.142;2023-02-12T15:08:06;10.70;95.50
46438;DHT22;32137;48.728;9.142;2023-02-12T15:13:48;10.80;95.20
46438;DHT22;32137;48.728;9.142;2023-02-12T15:17:06;10.70;95.30
46438;DHT22;32137;48.728;9.142;2023-02-12T15:22:29;10.80;94.90
46438;DHT22;32137;48.728;9.142;2023-02-12T15:25:22;10.90;94.90
46438;DHT22;32137;48.728;9.142;2023-02-12T15:27:56;10.80;94.70
46438;DHT22;32137;48.728;9.142;2023-02-12T15:30:27;10.80;94.70
46438;DHT22;32137;48.728;9.142;2023-02-12T15:32:55;10.80;94.80
46438;DHT22;32137;48.728;9.142;2023-02-12T15:35:25;10.80;94.90
46438;DHT22;32137;48.728;9.142;2023-02-12T15:37:52;10.70;94.90
46438;DHT22;32137;48.728;9.142;2023-02-12T15:40:18;10.70;95.10
46438;DHT22;32137;48.728;9.142;2023-02-12T15:45:30;10.60;95.30
46438;DHT22;32137;48.728;9.142;2023-02-12T15:50:33;10.40;95.80
46438;DHT22;32137;48.728;9.142;2023-02-12T15:53:00;10.40;95.80
46438;DHT22;32137;48.728;9.142;2023-02-12T15:55:31;10.30;95.80
46438;DHT22;32137;48.728;9.142;2023-02-12T15:57:59;10.20;96.10
46438;DHT22;32137;48.728;9.142;2023-02-12T16:00:42;10.10;96.50
46438;DHT22;32137;48.728;9.142;2023-02-12T16:03:29;9.90;96.80
46438;DHT22;32137;48.728;9.142;2023-02-12T16:06:07;9.70;97.50
46438;DHT22;32137;48.728;9.142;2023-02-12T16:08:37;9.50;98.00
46438;DHT22;32137;48.728;9.142;2023-02-12T16:11:03;9.40;98.70
46438;DHT22;32137;48.728;9.142;2023-02-12T16:13:41;9.30;99.40
46438;DHT22;32137;48.728;9.142;2023-02-12T16:16:15;9.20;99.90
46438;DHT22;32137;48.728;9.142;2023-02-12T16:18:41;9.10;99.90
46438;DHT22;32137;48.728;9.142;2023-02-12T16:21:11;8.90;99.90
46438;DHT22;32137;48.728;9.142;2023-02-12T16:23:37;8.90;99.90
46438;DHT22;32137;48.728;9.142;2023-02-12T16:26:03;8.80;99.90
46438;DHT22;32137;48.728;9.142;2023-02-12T16:28:30;8.70;99.90
46438;DHT22;32137;48.728;9.142;2023-02-12T16:31:09;8.70;99.90
46438;DHT22;32137;48.728;9.142;2023-02-12T16:33:46;8.60;99.90
46438;DHT22;32137;48.728;9.142;2023-02-12T16:38:47;8.50;99.90
46438;DHT22;32137;48.728;9.142;2023-02-12T16:46:26;8.30;99.90
46438;DHT22;32137;48.728;9.142;2023-02-12T16:48:53;8.20;99.90
46438;DHT22;32137;48.728;9.142;2023-02-12T16:51:32;8.20;99.90
46438;DHT22;32137;48.728;9.142;2023-02-12T16:54:00;8.10;99.90
46438;DHT22;32137;48.728;9.142;2023-02-12T16:56:35;8.10;99.90
46438;DHT22;32137;48.728;9.142;2023-02-12T16:59:04;8.00;99.90
46438;DHT22;32137;48.728;9.142;2023-02-12T17:01:33;8.00;99.90
46438;DHT22;32137;48.728;9.142;2023-02-12T17:04:03;7.90;99.90
46438;DHT22;32137;48.728;9.142;2023-02-12T17:06:31;7.80;99.90
46438;DHT22;32137;48.728;9.142;2023-02-12T17:08:57;7.80;99.90
46438;DHT22;32137;48.728;9.142;2023-02-12T17:11:24;7.70;99.90
46438;DHT22;32137;48.728;9.142;2023-02-12T17:13:52;7.70;99.90
46438;DHT22;32137;48.728;9.142;2023-02-12T17:16:20;7.60;99.90
46438;DHT22;32137;48.728;9.142;2023-02-12T17:18:46;7.60;99.90
46438;DHT22;32137;48.728;9.142;2023-02-12T17:21:25;7.50;99.90
46438;DHT22;32137;48.728;9.142;2023-02-12T17:23:51;7.40;99.90
46438;DHT22;32137;48.728;9.142;2023-02-12T17:26:19;7.40;99.90
46438;DHT22;32137;48.728;9.142;2023-02-12T17:28:45;7.30;99.90
46438;DHT22;32137;48.728;9.142;2023-02-12T17:31:10;7.30;99.90
46438;DHT22;32137;48.728;9.142;2023-02-12T17:33:36;7.30;99.90
46438;DHT22;32137;48.728;9.142;2023-02-12T17:36:02;7.20;99.90
46438;DHT22;32137;48.728;9.142;2023-02-12T17:38:28;7.20;99.90
46438;DHT22;32137;48.728;9.142;2023-02-12T17:40:53;7.10;99.90
46438;DHT22;32137;48.728;9.142;2023-02-12T17:43:19;7.10;99.90
46438;DHT22;32137;48.728;9.142;2023-02-12T17:45:45;7.10;99.90
46438;DHT22;32137;48.728;9.142;2023-02-12T17:48:12;7.00;99.90
46438;DHT22;32137;48.728;9.142;2023-02-12T17:50:39;7.00;99.90
46438;DHT22;32137;48.728;9.142;2023-02-12T17:53:05;7.00;99.90
46438;DHT22;32137;48.728;9.142;2023-02-12T17:55:31;6.90;99.90
46438;DHT22;32137;48.728;9.142;2023-02-12T17:57:56;6.90;99.90
46438;DHT22;32137;48.728;9.142;2023-02-12T18:00:23;6.80;99.90
46438;DHT22;32137;48.728;9.142;2023-02-12T18:02:49;6.80;99.90
46438;DHT22;32137;48.728;9.142;2023-02-12T18:05:15;6.80;99.90
46438;DHT22;32137;48.728;9.142;2023-02-12T18:07:41;6.80;99.90
46438;DHT22;32137;48.728;9.142;2023-02-12T18:10:07;6.80;99.90
46438;DHT22;32137;48.728;9.142;2023-02-12T18:12:33;6.80;99.90
46438;DHT22;32137;48.728;9.142;2023-02-12T18:15:00;6.70;99.90
46438;DHT22;32137;48.728;9.142;2023-02-12T18:17:27;6.70;99.90
46438;DHT22;32137;48.728;9.142;2023-02-12T18:19:52;6.70;99.90
46438;DHT22;32137;48.728;9.142;2023-02-12T18:22:18;6.70;99.90
46438;DHT22;32137;48.728;9.142;2023-02-12T18:24:44;6.60;99.90
46438;DHT22;32137;48.728;9.142;2023-02-12T18:27:14;6.60;99.90
46438;DHT22;32137;48.728;9.142;2023-02-12T18:29:40;6.60;99.90
46438;DHT22;32137;48.728;9.142;2023-02-12T18:32:06;6.50;99.90
46438;DHT22;32137;48.728;9.142;2023-02-12T18:34:32;6.50;99.90
46438;DHT22;32137;48.728;9.142;2023-02-12T18:36:58;6.50;99.90
46438;DHT22;32137;48.728;9.142;2023-02-12T18:39:23;6.50;99.90
46438;DHT22;32137;48.728;9.142;2023-02-12T18:41:49;6.50;99.90
46438;DHT22;32137;48.728;9.142;2023-02-12T18:44:14;6.40;99.90
46438;DHT22;32137;48.728;9.142;2023-02-12T18:46:40;6.40;99.90